sensor_id;sensor_type;location;lat;lon;timestamp;temperature;humidity
29341;DHT22;16337;59.536;13.468;2023-03-01T00:01:23;0.60;99.90
29341;DHT22;16337;59.536;13.468;2023-03-01T00:03:49;0.50;99.90
29341;DHT22;16337;59.536;13.468;2023-03-01T00:06:14;0.40;99.90
29341;DHT22;16337;59.536;13.468;2023-03-01T00:08:40;0.30;99.90
29341;DHT22;16337;59.536;13.468;2023-03-01T00:11:12;0.10;99.90
29341;DHT22;16337;59.536;13.468;2023-03-01T00:13:38;0.00;99.90
29341;DHT22;16337;59.536;13.468;2023-03-01T00:16:10;-0.10;99.90
29341;DHT22;16337;59.536;13.468;2023-03-01T00:18:36;-0.20;99.90
29341;DHT22;16337;59.536;13.468;2023-03-01T00:21:02;-0.30;99.90
29341;DHT22;16337;59.536;13.468;2023-03-01T00:23:28;-0.40;99.90
29341;DHT22;16337;59.536;13.468;2023-03-01T00:25:54;-0.50;99.90
29341;DHT22;16337;59.536;13.468;2023-03-01T00:28:20;-0.50;99.90
29341;DHT22;16337;59.536;13.468;2023-03-01T00:30:47;-0.50;99.90
29341;DHT22;16337;59.536;13.468;2023-03-01T00:33:13;-0.50;99.90
29341;DHT22;16337;59.536;13.468;2023-03-01T00:35:39;-0.60;99.90
29341;DHT22;16337;59.536;13.468;2023-03-01T00:38:05;-0.60;99.90
29341;DHT22;16337;59.536;13.468;2023-03-01T00:40:33;-0.70;99.90
29341;DHT22;16337;59.536;13.468;2023-03-01T00:42:59;-0.60;99.90
29341;DHT22;16337;59.536;13.468;2023-03-01T00:45:25;-0.40;99.90
29341;DHT22;16337;59.536;13.468;2023-03-01T00:47:52;-0.30;99.90
29341;DHT22;16337;59.536;13.468;2023-03-01T00:50:18;-0.20;99.90
29341;DHT22;16337;59.536;13.468;2023-03-01T00:52:44;0.10;99.90
29341;DHT22;16337;59.536;13.468;2023-03-01T00:55:10;0.30;99.90
29341;DHT22;16337;59.536;13.468;2023-03-01T00:57:35;0.40;99.90
29341;DHT22;16337;59.536;13.468;2023-03-01T01:00:02;0.50;99.90
29341;DHT22;16337;59.536;13.468;2023-03-01T01:02:29;0.50;99.90
29341;DHT22;16337;59.536;13.468;2023-03-01T01:04:54;0.50;99.90
29341;DHT22;16337;59.536;13.468;2023-03-01T01:07:20;0.60;99.90
29341;DHT22;16337;59.536;13.468;2023-03-01T01:09:46;0.60;99.90
29341;DHT22;16337;59.536;13.468;2023-03-01T01:12:12;0.60;99.90
29341;DHT22;16337;59.536;13.468;2023-03-01T01:14:38;0.60;99.90
29341;DHT22;16337;59.536;13.468;2023-03-01T01:17:04;0.40;99.90
29341;DHT22;16337;59.536;13.468;2023-03-01T01:19:30;0.30;99.90
29341;DHT22;16337;59.536;13.468;2023-03-01T01:21:56;0.30;99.90
29341;DHT22;16337;59.536;13.468;2023-03-01T01:24:22;0.20;99.90
29341;DHT22;16337;59.536;13.468;2023-03-01T01:26:48;0.20;99.90
29341;DHT22;16337;59.536;13.468;2023-03-01T01:29:14;0.10;99.90
29341;DHT22;16337;59.536;13.468;2023-03-01T01:31:41;-0.10;99.90
29341;DHT22;16337;59.536;13.468;2023-03-01T01:34:11;-0.10;99.90
29341;DHT22;16337;59.536;13.468;2023-03-01T01:36:38;-0.20;99.90
29341;DHT22;16337;59.536;13.468;2023-03-01T01:39:04;-0.40;99.90
29341;DHT22;16337;59.536;13.468;2023-03-01T01:41:30;-0.50;99.90
29341;DHT22;16337;59.536;13.468;2023-03-01T01:44:13;-0.50;99.90
29341;DHT22;16337;59.536;13.468;2023-03-01T01:47:02;-0.60;99.90
29341;DHT22;16337;59.536;13.468;2023-03-01T01:49:40;-0.60;99.90
29341;DHT22;16337;59.536;13.468;2023-03-01T01:54:44;-0.80;99.90
29341;DHT22;16337;59.536;13.468;2023-03-01T01:57:16;-0.80;99.90
29341;DHT22;16337;59.536;13.468;2023-03-01T01:59:45;-0.90;99.90
29341;DHT22;16337;59.536;13.468;2023-03-01T02:02:13;-1.00;99.90
29341;DHT22;16337;59.536;13.468;2023-03-01T02:04:40;-1.00;99.90
29341;DHT22;16337;59.536;13.468;2023-03-01T02:07:18;-1.10;99.90
29341;DHT22;16337;59.536;13.468;2023-03-01T02:09:50;-1.20;99.90
29341;DHT22;16337;59.536;13.468;2023-03-01T02:12:20;-1.30;99.90
29341;DHT22;16337;59.536;13.468;2023-03-01T02:14:47;-1.30;99.90
29341;DHT22;16337;59.536;13.468;2023-03-01T02:17:14;-1.40;99.90
29341;DHT22;16337;59.536;13.468;2023-03-01T02:22:30;-1.30;99.90
29341;DHT22;16337;59.536;13.468;2023-03-01T02:27:45;-1.40;99.90
29341;DHT22;16337;59.536;13.468;2023-03-01T02:30:15;-1.50;99.90
29341;DHT22;16337;59.536;13.468;2023-03-01T02:32:41;-1.50;99.90
29341;DHT22;16337;59.536;13.468;2023-03-01T02:35:13;-1.50;99.90
29341;DHT22;16337;59.536;13.468;2023-03-01T02:37:41;-1.60;99.90
29341;DHT22;16337;59.536;13.468;2023-03-01T02:40:11;-1.50;99.90
29341;DHT22;16337;59.536;13.468;2023-03-01T02:42:48;-1.50;99.90
29341;DHT22;16337;59.536;13.468;2023-03-01T02:45:15;-1.30;99.90
29341;DHT22;16337;59.536;13.468;2023-03-01T02:47:41;-1.20;99.90
29341;DHT22;16337;59.536;13.468;2023-03-01T02:52:57;-1.20;99.90
29341;DHT22;16337;59.536;13.468;2023-03-01T02:55:27;-1.30;99.90
29341;DHT22;16337;59.536;13.468;2023-03-01T02:57:53;-1.20;99.90
29341;DHT22;16337;59.536;13.468;2023-03-01T03:00:24;-1.20;99.90
29341;DHT22;16337;59.536;13.468;2023-03-01T03:02:53;-1.00;99.90
29341;DHT22;16337;59.536;13.468;2023-03-01T03:05:30;-1.00;99.90
29341;DHT22;16337;59.536;13.468;2023-03-01T03:07:57;-1.10;99.90
29341;DHT22;16337;59.536;13.468;2023-03-01T03:10:25;-1.10;99.90
29341;DHT22;16337;59.536;13.468;2023-03-01T03:12:54;-1.10;99.90
29341;DHT22;16337;59.536;13.468;2023-03-01T03:15:21;-1.20;99.90
29341;DHT22;16337;59.536;13.468;2023-03-01T03:17:47;-1.30;99.90
29341;DHT22;16337;59.536;13.468;2023-03-01T03:20:15;-1.40;99.90
29341;DHT22;16337;59.536;13.468;2023-03-01T03:22:45;-1.50;99.90
29341;DHT22;16337;59.536;13.468;2023-03-01T03:25:11;-1.60;99.90
29341;DHT22;16337;59.536;13.468;2023-03-01T03:27:41;-1.60;99.90
29341;DHT22;16337;59.536;13.468;2023-03-01T03:30:11;-1.60;99.90
29341;DHT22;16337;59.536;13.468;2023-03-01T03:32:43;-1.60;99.90
29341;DHT22;16337;59.536;13.468;2023-03-01T03:35:21;-1.60;99.90
29341;DHT22;16337;59.536;13.468;2023-03-01T03:37:48;-1.60;99.90
29341;DHT22;16337;59.536;13.468;2023-03-01T03:40:38;-1.70;99.90
29341;DHT22;16337;59.536;13.468;2023-03-01T03:43:06;-1.70;99.90
29341;DHT22;16337;59.536;13.468;2023-03-01T03:45:32;-1.80;99.90
29341;DHT22;16337;59.536;13.468;2023-03-01T03:47:59;-1.90;99.90
29341;DHT22;16337;59.536;13.468;2023-03-01T03:50:25;-1.90;99.90
29341;DHT22;16337;59.536;13.468;2023-03-01T03:52:51;-2.00;99.90
29341;DHT22;16337;59.536;13.468;2023-03-01T03:55:17;-2.00;99.90
29341;DHT22;16337;59.536;13.468;2023-03-01T03:57:45;-2.00;99.90
29341;DHT22;16337;59.536;13.468;2023-03-01T04:00:18;-2.10;99.90
29341;DHT22;16337;59.536;13.468;2023-03-01T04:02:46;-2.10;99.90
29341;DHT22;16337;59.536;13.468;2023-03-01T04:05:13;-2.10;99.90
29341;DHT22;16337;59.536;13.468;2023-03-01T04:07:43;-2.10;99.90
29341;DHT22;16337;59.536;13.468;2023-03-01T04:10:12;-2.10;99.90
29341;DHT22;16337;59.536;13.468;2023-03-01T04:12:38;-2.10;99.90
29341;DHT22;16337;59.536;13.468;2023-03-01T04:15:06;-2.10;99.90
29341;DHT22;16337;59.536;13.468;2023-03-01T04:17:46;-2.00;99.90
29341;DHT22;16337;59.536;13.468;2023-03-01T04:20:15;-1.90;99.90
29341;DHT22;16337;59.536;13.468;2023-03-01T04:22:43;-1.70;99.90
29341;DHT22;16337;59.536;13.468;2023-03-01T04:25:12;-1.60;99.90
29341;DHT22;16337;59.536;13.468;2023-03-01T04:27:40;-1.50;99.90
29341;DHT22;16337;59.536;13.468;2023-03-01T04:30:06;-1.50;99.90
29341;DHT22;16337;59.536;13.468;2023-03-01T04:32:32;-1.50;99.90
29341;DHT22;16337;59.536;13.468;2023-03-01T04:34:58;-1.60;99.90
29341;DHT22;16337;59.536;13.468;2023-03-01T04:37:24;-1.60;99.90
29341;DHT22;16337;59.536;13.468;2023-03-01T04:39:50;-1.70;99.90
29341;DHT22;16337;59.536;13.468;2023-03-01T04:42:16;-1.70;99.90
29341;DHT22;16337;59.536;13.468;2023-03-01T04:44:43;-1.80;99.90
29341;DHT22;16337;59.536;13.468;2023-03-01T04:47:08;-1.90;99.90
29341;DHT22;16337;59.536;13.468;2023-03-01T04:49:34;-2.00;99.90
29341;DHT22;16337;59.536;13.468;2023-03-01T04:52:00;-2.20;99.90
29341;DHT22;16337;59.536;13.468;2023-03-01T04:54:30;-2.30;99.90
29341;DHT22;16337;59.536;13.468;2023-03-01T04:56:57;-2.40;99.90
29341;DHT22;16337;59.536;13.468;2023-03-01T04:59:23;-2.50;99.90
29341;DHT22;16337;59.536;13.468;2023-03-01T05:01:50;-2.50;99.90
29341;DHT22;16337;59.536;13.468;2023-03-01T05:04:16;-2.60;99.90
29341;DHT22;16337;59.536;13.468;2023-03-01T05:06:41;-2.70;99.90
29341;DHT22;16337;59.536;13.468;2023-03-01T05:09:08;-2.80;99.90
29341;DHT22;16337;59.536;13.468;2023-03-01T05:11:33;-2.80;99.90
29341;DHT22;16337;59.536;13.468;2023-03-01T05:14:02;-2.90;99.90
29341;DHT22;16337;59.536;13.468;2023-03-01T05:16:27;-2.90;99.90
29341;DHT22;16337;59.536;13.468;2023-03-01T05:18:53;-3.00;99.90
29341;DHT22;16337;59.536;13.468;2023-03-01T05:21:20;-3.00;99.90
29341;DHT22;16337;59.536;13.468;2023-03-01T05:23:46;-3.10;99.90
29341;DHT22;16337;59.536;13.468;2023-03-01T05:26:13;-3.10;99.90
29341;DHT22;16337;59.536;13.468;2023-03-01T05:28:39;-3.10;99.90
29341;DHT22;16337;59.536;13.468;2023-03-01T05:31:05;-3.00;99.90
29341;DHT22;16337;59.536;13.468;2023-03-01T05:33:41;-3.00;99.90
29341;DHT22;16337;59.536;13.468;2023-03-01T05:36:08;-2.90;99.90
29341;DHT22;16337;59.536;13.468;2023-03-01T05:38:35;-2.90;99.90
29341;DHT22;16337;59.536;13.468;2023-03-01T05:41:01;-2.70;99.90
29341;DHT22;16337;59.536;13.468;2023-03-01T05:43:30;-2.50;99.90
29341;DHT22;16337;59.536;13.468;2023-03-01T05:45:59;-2.50;99.90
29341;DHT22;16337;59.536;13.468;2023-03-01T05:48:25;-2.50;99.90
29341;DHT22;16337;59.536;13.468;2023-03-01T05:50:51;-2.50;99.90
29341;DHT22;16337;59.536;13.468;2023-03-01T05:53:19;-2.50;99.90
29341;DHT22;16337;59.536;13.468;2023-03-01T05:55:48;-2.40;99.90
29341;DHT22;16337;59.536;13.468;2023-03-01T05:58:17;-2.40;99.90
29341;DHT22;16337;59.536;13.468;2023-03-01T06:00:46;-2.30;99.90
29341;DHT22;16337;59.536;13.468;2023-03-01T06:03:14;-2.30;99.90
29341;DHT22;16337;59.536;13.468;2023-03-01T06:05:40;-2.20;99.90
29341;DHT22;16337;59.536;13.468;2023-03-01T06:08:06;-2.20;99.90
29341;DHT22;16337;59.536;13.468;2023-03-01T06:10:32;-2.30;99.90
29341;DHT22;16337;59.536;13.468;2023-03-01T06:12:58;-2.40;99.90
29341;DHT22;16337;59.536;13.468;2023-03-01T06:15:24;-2.40;99.90
29341;DHT22;16337;59.536;13.468;2023-03-01T06:17:51;-2.40;99.90
29341;DHT22;16337;59.536;13.468;2023-03-01T06:20:21;-2.50;99.90
29341;DHT22;16337;59.536;13.468;2023-03-01T06:22:48;-2.50;99.90
29341;DHT22;16337;59.536;13.468;2023-03-01T06:25:17;-2.40;99.90
29341;DHT22;16337;59.536;13.468;2023-03-01T06:27:43;-2.30;99.90
29341;DHT22;16337;59.536;13.468;2023-03-01T06:30:12;-2.20;99.90
29341;DHT22;16337;59.536;13.468;2023-03-01T06:32:39;-2.20;99.90
29341;DHT22;16337;59.536;13.468;2023-03-01T06:35:13;-2.30;99.90
29341;DHT22;16337;59.536;13.468;2023-03-01T06:37:40;-2.30;99.90
29341;DHT22;16337;59.536;13.468;2023-03-01T06:40:07;-2.30;99.90
29341;DHT22;16337;59.536;13.468;2023-03-01T06:42:35;-2.30;99.90
29341;DHT22;16337;59.536;13.468;2023-03-01T06:45:02;-2.40;99.90
29341;DHT22;16337;59.536;13.468;2023-03-01T06:47:28;-2.40;99.90
29341;DHT22;16337;59.536;13.468;2023-03-01T06:49:54;-2.40;99.90
29341;DHT22;16337;59.536;13.468;2023-03-01T06:52:19;-2.40;99.90
29341;DHT22;16337;59.536;13.468;2023-03-01T06:54:45;-2.30;99.90
29341;DHT22;16337;59.536;13.468;2023-03-01T06:57:11;-2.20;99.90
29341;DHT22;16337;59.536;13.468;2023-03-01T06:59:36;-2.10;99.90
29341;DHT22;16337;59.536;13.468;2023-03-01T07:02:02;-1.90;99.90
29341;DHT22;16337;59.536;13.468;2023-03-01T07:04:28;-1.80;99.90
29341;DHT22;16337;59.536;13.468;2023-03-01T07:06:55;-1.60;99.90
29341;DHT22;16337;59.536;13.468;2023-03-01T07:09:22;-1.50;99.90
29341;DHT22;16337;59.536;13.468;2023-03-01T07:11:48;-1.40;99.90
29341;DHT22;16337;59.536;13.468;2023-03-01T07:14:14;-1.40;99.90
29341;DHT22;16337;59.536;13.468;2023-03-01T07:16:40;-1.30;99.90
29341;DHT22;16337;59.536;13.468;2023-03-01T07:19:06;-1.30;99.90
29341;DHT22;16337;59.536;13.468;2023-03-01T07:21:32;-1.20;99.90
29341;DHT22;16337;59.536;13.468;2023-03-01T07:23:57;-1.10;99.90
29341;DHT22;16337;59.536;13.468;2023-03-01T07:26:23;-0.80;99.90
29341;DHT22;16337;59.536;13.468;2023-03-01T07:28:49;-0.50;99.90
29341;DHT22;16337;59.536;13.468;2023-03-01T07:31:14;-0.30;99.90
29341;DHT22;16337;59.536;13.468;2023-03-01T07:33:40;0.00;99.90
29341;DHT22;16337;59.536;13.468;2023-03-01T07:36:06;0.20;99.90
29341;DHT22;16337;59.536;13.468;2023-03-01T07:38:33;0.50;99.90
29341;DHT22;16337;59.536;13.468;2023-03-01T07:41:03;0.60;99.90
29341;DHT22;16337;59.536;13.468;2023-03-01T07:43:29;0.70;99.90
29341;DHT22;16337;59.536;13.468;2023-03-01T07:46:01;0.80;99.90
29341;DHT22;16337;59.536;13.468;2023-03-01T07:48:28;1.00;99.90
29341;DHT22;16337;59.536;13.468;2023-03-01T07:50:57;1.10;99.90
29341;DHT22;16337;59.536;13.468;2023-03-01T07:53:23;1.30;99.90
29341;DHT22;16337;59.536;13.468;2023-03-01T07:55:48;1.50;99.90
29341;DHT22;16337;59.536;13.468;2023-03-01T07:58:14;1.70;99.90
29341;DHT22;16337;59.536;13.468;2023-03-01T08:00:40;1.90;99.90
29341;DHT22;16337;59.536;13.468;2023-03-01T08:03:06;2.00;99.90
29341;DHT22;16337;59.536;13.468;2023-03-01T08:05:32;2.20;99.90
29341;DHT22;16337;59.536;13.468;2023-03-01T08:07:57;2.30;99.90
29341;DHT22;16337;59.536;13.468;2023-03-01T08:10:23;2.50;99.90
29341;DHT22;16337;59.536;13.468;2023-03-01T08:12:51;2.60;99.90
29341;DHT22;16337;59.536;13.468;2023-03-01T08:15:18;2.70;99.90
29341;DHT22;16337;59.536;13.468;2023-03-01T08:17:44;2.90;99.90
29341;DHT22;16337;59.536;13.468;2023-03-01T08:20:10;3.00;99.90
29341;DHT22;16337;59.536;13.468;2023-03-01T08:22:37;3.10;99.90
29341;DHT22;16337;59.536;13.468;2023-03-01T08:25:03;3.30;99.90
29341;DHT22;16337;59.536;13.468;2023-03-01T08:27:29;3.40;99.90
29341;DHT22;16337;59.536;13.468;2023-03-01T08:29:55;3.50;99.90
29341;DHT22;16337;59.536;13.468;2023-03-01T08:32:20;3.60;99.90
29341;DHT22;16337;59.536;13.468;2023-03-01T08:34:47;3.70;99.90
29341;DHT22;16337;59.536;13.468;2023-03-01T08:37:12;3.80;99.90
29341;DHT22;16337;59.536;13.468;2023-03-01T08:39:38;3.90;99.90
29341;DHT22;16337;59.536;13.468;2023-03-01T08:42:04;4.10;99.90
29341;DHT22;16337;59.536;13.468;2023-03-01T08:44:30;4.20;99.90
29341;DHT22;16337;59.536;13.468;2023-03-01T08:46:55;4.40;99.90
29341;DHT22;16337;59.536;13.468;2023-03-01T08:49:21;4.50;99.90
29341;DHT22;16337;59.536;13.468;2023-03-01T08:51:47;4.70;99.90
29341;DHT22;16337;59.536;13.468;2023-03-01T08:54:16;4.80;99.90
29341;DHT22;16337;59.536;13.468;2023-03-01T08:56:42;5.10;99.90
29341;DHT22;16337;59.536;13.468;2023-03-01T08:59:10;5.20;99.90
29341;DHT22;16337;59.536;13.468;2023-03-01T09:01:36;5.30;99.90
29341;DHT22;16337;59.536;13.468;2023-03-01T09:04:03;5.50;99.90
29341;DHT22;16337;59.536;13.468;2023-03-01T09:06:31;5.60;99.90
29341;DHT22;16337;59.536;13.468;2023-03-01T09:08:58;5.70;99.90
29341;DHT22;16337;59.536;13.468;2023-03-01T09:11:24;5.70;99.90
29341;DHT22;16337;59.536;13.468;2023-03-01T09:13:50;5.90;99.90
29341;DHT22;16337;59.536;13.468;2023-03-01T09:16:18;6.00;99.90
29341;DHT22;16337;59.536;13.468;2023-03-01T09:18:48;6.20;99.90
29341;DHT22;16337;59.536;13.468;2023-03-01T09:21:15;6.50;99.90
29341;DHT22;16337;59.536;13.468;2023-03-01T09:23:43;6.70;99.90
29341;DHT22;16337;59.536;13.468;2023-03-01T09:26:11;6.70;99.90
29341;DHT22;16337;59.536;13.468;2023-03-01T09:28:38;6.70;99.90
29341;DHT22;16337;59.536;13.468;2023-03-01T09:31:04;6.80;99.90
29341;DHT22;16337;59.536;13.468;2023-03-01T09:33:31;6.90;99.90
29341;DHT22;16337;59.536;13.468;2023-03-01T09:36:03;7.10;99.90
29341;DHT22;16337;59.536;13.468;2023-03-01T09:38:29;7.20;99.90
29341;DHT22;16337;59.536;13.468;2023-03-01T09:40:55;7.30;99.90
29341;DHT22;16337;59.536;13.468;2023-03-01T09:45:55;7.40;99.90
29341;DHT22;16337;59.536;13.468;2023-03-01T09:48:26;7.60;99.90
29341;DHT22;16337;59.536;13.468;2023-03-01T09:50:53;7.80;99.90
29341;DHT22;16337;59.536;13.468;2023-03-01T09:53:22;7.90;99.90
29341;DHT22;16337;59.536;13.468;2023-03-01T09:58:41;8.30;99.90
29341;DHT22;16337;59.536;13.468;2023-03-01T10:06:58;8.80;99.90
29341;DHT22;16337;59.536;13.468;2023-03-01T10:09:32;9.00;99.90
29341;DHT22;16337;59.536;13.468;2023-03-01T10:12:02;9.30;99.90
29341;DHT22;16337;59.536;13.468;2023-03-01T10:14:43;9.20;99.90
29341;DHT22;16337;59.536;13.468;2023-03-01T10:19:45;9.00;99.90
29341;DHT22;16337;59.536;13.468;2023-03-01T10:22:29;8.80;99.90
29341;DHT22;16337;59.536;13.468;2023-03-01T10:25:02;8.90;99.90
29341;DHT22;16337;59.536;13.468;2023-03-01T10:27:51;9.00;99.90
29341;DHT22;16337;59.536;13.468;2023-03-01T10:30:21;9.10;99.90
29341;DHT22;16337;59.536;13.468;2023-03-01T10:32:50;9.20;99.90
29341;DHT22;16337;59.536;13.468;2023-03-01T10:35:25;9.30;99.90
29341;DHT22;16337;59.536;13.468;2023-03-01T10:38:14;9.50;99.90
29341;DHT22;16337;59.536;13.468;2023-03-01T10:41:04;9.70;99.90
29341;DHT22;16337;59.536;13.468;2023-03-01T10:43:56;9.80;99.90
29341;DHT22;16337;59.536;13.468;2023-03-01T10:46:32;9.90;99.90
29341;DHT22;16337;59.536;13.468;2023-03-01T10:49:20;9.90;99.90
29341;DHT22;16337;59.536;13.468;2023-03-01T10:51:51;10.00;99.90
29341;DHT22;16337;59.536;13.468;2023-03-01T10:56:54;9.90;99.90
29341;DHT22;16337;59.536;13.468;2023-03-01T10:59:41;9.90;99.90
29341;DHT22;16337;59.536;13.468;2023-03-01T11:02:23;10.00;99.90
29341;DHT22;16337;59.536;13.468;2023-03-01T11:10:18;9.60;99.90
29341;DHT22;16337;59.536;13.468;2023-03-01T11:12:43;9.50;99.90
29341;DHT22;16337;59.536;13.468;2023-03-01T11:15:24;9.60;99.90
29341;DHT22;16337;59.536;13.468;2023-03-01T11:17:50;10.00;99.90
29341;DHT22;16337;59.536;13.468;2023-03-01T11:20:34;10.20;99.90
29341;DHT22;16337;59.536;13.468;2023-03-01T11:25:36;10.10;99.90
29341;DHT22;16337;59.536;13.468;2023-03-01T11:28:05;10.00;99.90
29341;DHT22;16337;59.536;13.468;2023-03-01T11:30:37;10.00;99.90
29341;DHT22;16337;59.536;13.468;2023-03-01T11:33:41;10.20;99.90
29341;DHT22;16337;59.536;13.468;2023-03-01T11:38:48;10.60;99.90
29341;DHT22;16337;59.536;13.468;2023-03-01T11:41:20;10.70;99.90
29341;DHT22;16337;59.536;13.468;2023-03-01T11:44:23;10.80;99.90
29341;DHT22;16337;59.536;13.468;2023-03-01T11:56:05;10.80;99.90
29341;DHT22;16337;59.536;13.468;2023-03-01T11:59:03;10.90;99.90
29341;DHT22;16337;59.536;13.468;2023-03-01T12:27:00;10.50;99.90
29341;DHT22;16337;59.536;13.468;2023-03-01T12:29:42;10.50;99.90
29341;DHT22;16337;59.536;13.468;2023-03-01T12:37:50;10.60;99.90
29341;DHT22;16337;59.536;13.468;2023-03-01T12:40:40;10.60;99.90
29341;DHT22;16337;59.536;13.468;2023-03-01T12:43:15;10.80;99.90
29341;DHT22;16337;59.536;13.468;2023-03-01T12:46:08;10.80;99.90
29341;DHT22;16337;59.536;13.468;2023-03-01T12:48:59;10.80;99.90
29341;DHT22;16337;59.536;13.468;2023-03-01T12:51:30;10.60;99.90
29341;DHT22;16337;59.536;13.468;2023-03-01T12:53:59;10.60;99.90
29341;DHT22;16337;59.536;13.468;2023-03-01T12:56:29;10.70;99.90
29341;DHT22;16337;59.536;13.468;2023-03-01T12:59:15;10.50;99.90
29341;DHT22;16337;59.536;13.468;2023-03-01T13:02:14;10.40;99.90
29341;DHT22;16337;59.536;13.468;2023-03-01T13:04:58;10.70;99.90
29341;DHT22;16337;59.536;13.468;2023-03-01T13:07:43;10.80;99.90
29341;DHT22;16337;59.536;13.468;2023-03-01T13:10:33;10.40;99.90
29341;DHT22;16337;59.536;13.468;2023-03-01T13:13:13;10.20;99.90
29341;DHT22;16337;59.536;13.468;2023-03-01T13:15:42;10.00;99.90
29341;DHT22;16337;59.536;13.468;2023-03-01T13:20:48;9.50;99.90
29341;DHT22;16337;59.536;13.468;2023-03-01T13:36:10;8.70;99.90
29341;DHT22;16337;59.536;13.468;2023-03-01T13:38:46;8.50;99.90
29341;DHT22;16337;59.536;13.468;2023-03-01T13:41:47;8.30;99.90
29341;DHT22;16337;59.536;13.468;2023-03-01T13:44:01;8.40;99.90
29341;DHT22;16337;59.536;13.468;2023-03-01T13:46:36;8.50;99.90
29341;DHT22;16337;59.536;13.468;2023-03-01T13:49:02;8.50;99.90
29341;DHT22;16337;59.536;13.468;2023-03-01T13:51:28;8.50;99.90
29341;DHT22;16337;59.536;13.468;2023-03-01T13:53:55;8.30;99.90
29341;DHT22;16337;59.536;13.468;2023-03-01T13:56:26;8.20;99.90
29341;DHT22;16337;59.536;13.468;2023-03-01T13:59:02;8.10;99.90
29341;DHT22;16337;59.536;13.468;2023-03-01T14:01:36;8.00;99.90
29341;DHT22;16337;59.536;13.468;2023-03-01T14:04:21;8.00;99.90
29341;DHT22;16337;59.536;13.468;2023-03-01T14:06:47;8.10;99.90
29341;DHT22;16337;59.536;13.468;2023-03-01T14:09:23;8.00;99.90
29341;DHT22;16337;59.536;13.468;2023-03-01T14:14:29;7.90;99.90
29341;DHT22;16337;59.536;13.468;2023-03-01T14:19:29;8.00;99.90
29341;DHT22;16337;59.536;13.468;2023-03-01T14:22:25;7.90;99.90
29341;DHT22;16337;59.536;13.468;2023-03-01T14:25:24;7.80;99.90
29341;DHT22;16337;59.536;13.468;2023-03-01T14:28:13;7.60;99.90
29341;DHT22;16337;59.536;13.468;2023-03-01T14:30:50;7.40;99.90
29341;DHT22;16337;59.536;13.468;2023-03-01T14:33:25;7.30;99.90
29341;DHT22;16337;59.536;13.468;2023-03-01T14:35:56;7.10;99.90
29341;DHT22;16337;59.536;13.468;2023-03-01T14:38:28;7.00;99.90
29341;DHT22;16337;59.536;13.468;2023-03-01T14:40:58;6.90;99.90
29341;DHT22;16337;59.536;13.468;2023-03-01T14:43:25;6.90;99.90
29341;DHT22;16337;59.536;13.468;2023-03-01T14:45:51;6.80;99.90
29341;DHT22;16337;59.536;13.468;2023-03-01T14:48:18;6.80;99.90
29341;DHT22;16337;59.536;13.468;2023-03-01T14:50:45;6.60;99.90
29341;DHT22;16337;59.536;13.468;2023-03-01T14:55:50;6.20;99.90
29341;DHT22;16337;59.536;13.468;2023-03-01T14:58:20;6.20;99.90
29341;DHT22;16337;59.536;13.468;2023-03-01T15:03:41;6.00;99.90
29341;DHT22;16337;59.536;13.468;2023-03-01T15:06:09;5.80;99.90
29341;DHT22;16337;59.536;13.468;2023-03-01T15:08:50;5.50;99.90
29341;DHT22;16337;59.536;13.468;2023-03-01T15:11:29;5.50;99.90
29341;DHT22;16337;59.536;13.468;2023-03-01T15:13:55;5.50;99.90
29341;DHT22;16337;59.536;13.468;2023-03-01T15:16:31;5.50;99.90
29341;DHT22;16337;59.536;13.468;2023-03-01T15:19:00;5.40;99.90
29341;DHT22;16337;59.536;13.468;2023-03-01T15:21:36;5.30;99.90
29341;DHT22;16337;59.536;13.468;2023-03-01T15:24:18;5.50;99.90
29341;DHT22;16337;59.536;13.468;2023-03-01T15:29:27;5.80;99.90
29341;DHT22;16337;59.536;13.468;2023-03-01T15:34:26;6.00;99.90
29341;DHT22;16337;59.536;13.468;2023-03-01T15:36:54;6.00;99.90
29341;DHT22;16337;59.536;13.468;2023-03-01T15:39:42;5.90;99.90
29341;DHT22;16337;59.536;13.468;2023-03-01T15:42:13;5.80;99.90
29341;DHT22;16337;59.536;13.468;2023-03-01T15:44:46;5.50;99.90
29341;DHT22;16337;59.536;13.468;2023-03-01T15:47:25;5.40;99.90
29341;DHT22;16337;59.536;13.468;2023-03-01T15:49:53;5.30;99.90
29341;DHT22;16337;59.536;13.468;2023-03-01T15:52:25;5.20;99.90
29341;DHT22;16337;59.536;13.468;2023-03-01T15:55:01;5.20;99.90
29341;DHT22;16337;59.536;13.468;2023-03-01T15:57:27;5.10;99.90
29341;DHT22;16337;59.536;13.468;2023-03-01T15:59:53;5.10;99.90
29341;DHT22;16337;59.536;13.468;2023-03-01T16:02:23;4.90;99.90
29341;DHT22;16337;59.536;13.468;2023-03-01T16:04:49;4.70;99.90
29341;DHT22;16337;59.536;13.468;2023-03-01T16:07:15;4.40;99.90
29341;DHT22;16337;59.536;13.468;2023-03-01T16:09:40;4.40;99.90
29341;DHT22;16337;59.536;13.468;2023-03-01T16:12:13;4.10;99.90
29341;DHT22;16337;59.536;13.468;2023-03-01T16:14:39;4.00;99.90
29341;DHT22;16337;59.536;13.468;2023-03-01T16:17:05;3.90;99.90
29341;DHT22;16337;59.536;13.468;2023-03-01T16:19:31;3.80;99.90
29341;DHT22;16337;59.536;13.468;2023-03-01T16:21:56;3.80;99.90
29341;DHT22;16337;59.536;13.468;2023-03-01T16:24:22;3.80;99.90
29341;DHT22;16337;59.536;13.468;2023-03-01T16:26:48;3.90;99.90
29341;DHT22;16337;59.536;13.468;2023-03-01T16:29:13;3.90;99.90
29341;DHT22;16337;59.536;13.468;2023-03-01T16:31:40;4.10;99.90
29341;DHT22;16337;59.536;13.468;2023-03-01T16:34:06;4.20;99.90
29341;DHT22;16337;59.536;13.468;2023-03-01T16:36:32;4.20;99.90
29341;DHT22;16337;59.536;13.468;2023-03-01T16:38:58;4.10;99.90
29341;DHT22;16337;59.536;13.468;2023-03-01T16:41:26;4.00;99.90
29341;DHT22;16337;59.536;13.468;2023-03-01T16:43:52;3.90;99.90
29341;DHT22;16337;59.536;13.468;2023-03-01T16:46:23;3.80;99.90
29341;DHT22;16337;59.536;13.468;2023-03-01T16:48:49;3.80;99.90
29341;DHT22;16337;59.536;13.468;2023-03-01T16:51:15;3.70;99.90
29341;DHT22;16337;59.536;13.468;2023-03-01T16:53:41;3.60;99.90
29341;DHT22;16337;59.536;13.468;2023-03-01T16:56:10;3.60;99.90
29341;DHT22;16337;59.536;13.468;2023-03-01T16:58:36;3.50;99.90
29341;DHT22;16337;59.536;13.468;2023-03-01T17:01:10;3.60;99.90
29341;DHT22;16337;59.536;13.468;2023-03-01T17:03:36;3.70;99.90
29341;DHT22;16337;59.536;13.468;2023-03-01T17:06:08;3.80;99.90
29341;DHT22;16337;59.536;13.468;2023-03-01T17:08:35;3.70;99.90
29341;DHT22;16337;59.536;13.468;2023-03-01T17:11:15;3.60;99.90
29341;DHT22;16337;59.536;13.468;2023-03-01T17:13:41;3.50;99.90
29341;DHT22;16337;59.536;13.468;2023-03-01T17:16:09;3.40;99.90
29341;DHT22;16337;59.536;13.468;2023-03-01T17:18:36;3.30;99.90
29341;DHT22;16337;59.536;13.468;2023-03-01T17:21:03;3.30;99.90
29341;DHT22;16337;59.536;13.468;2023-03-01T17:23:31;3.30;99.90
29341;DHT22;16337;59.536;13.468;2023-03-01T17:25:57;3.30;99.90
29341;DHT22;16337;59.536;13.468;2023-03-01T17:28:24;3.30;99.90